Time;durP1;ratioP1;P1;durP2;ratioP2;P2;SDS_P1;SDS_P2;PMS_P1;PMS_P2;Temp;Humidity;BMP_temperature;BMP_pressure;BME280_temperature;BME280_humidity;BME280_pressure;Samples;Min_cycle;Max_cycle;Signal;HPM_P1;HPM_P2
2023/12/09 00:01:06;;;;;;;18.05;8.18;;;;;;;;;;4969120;28;20471;-66
2023/12/09 00:03:31;;;;;;;16.10;8.07;;;;;;;;;;4970509;28;20031;-63
2023/12/09 00:05:57;;;;;;;12.35;6.38;;;;;;;;;;4968660;28;20113;-66
2023/12/09 00:08:22;;;;;;;14.13;6.53;;;;;;;;;;4969288;28;20023;-66
2023/12/09 00:10:47;;;;;;;13.60;6.78;;;;;;;;;;4972464;28;20109;-64
2023/12/09 00:13:12;;;;;;;14.73;6.75;;;;;;;;;;4970066;28;20578;-64
2023/12/09 00:15:38;;;;;;;12.55;5.82;;;;;;;;;;4968983;28;20027;-65
2023/12/09 00:18:03;;;;;;;11.77;5.97;;;;;;;;;;4969088;28;20478;-64
2023/12/09 00:20:29;;;;;;;11.93;6.65;;;;;;;;;;4969629;28;20454;-64
2023/12/09 00:22:54;;;;;;;13.05;6.88;;;;;;;;;;4970712;28;20022;-67
2023/12/09 00:25:19;;;;;;;13.40;7.00;;;;;;;;;;4967063;28;20027;-66
2023/12/09 00:27:45;;;;;;;11.60;6.15;;;;;;;;;;4969789;28;20027;-65
2023/12/09 00:30:10;;;;;;;14.13;7.43;;;;;;;;;;4966515;28;20477;-65
2023/12/09 00:32:35;;;;;;;13.73;6.65;;;;;;;;;;4970319;28;20692;-64
2023/12/09 00:35:01;;;;;;;12.57;6.78;;;;;;;;;;4964347;28;20038;-65
2023/12/09 00:37:26;;;;;;;15.23;7.80;;;;;;;;;;4967436;28;20018;-64
2023/12/09 00:39:52;;;;;;;14.35;7.45;;;;;;;;;;4969374;28;20015;-64
2023/12/09 00:42:17;;;;;;;13.57;7.68;;;;;;;;;;4977797;28;20383;-64
2023/12/09 00:44:42;;;;;;;14.82;7.50;;;;;;;;;;4978554;28;20068;-64
2023/12/09 00:47:07;;;;;;;14.27;7.35;;;;;;;;;;4966305;28;20166;-65
2023/12/09 00:49:32;;;;;;;11.68;6.40;;;;;;;;;;4978107;28;20400;-64
2023/12/09 00:51:58;;;;;;;12.63;6.45;;;;;;;;;;4969876;28;20406;-65
2023/12/09 00:54:23;;;;;;;13.02;7.00;;;;;;;;;;4969908;28;20030;-64
2023/12/09 00:56:48;;;;;;;15.20;6.45;;;;;;;;;;4968689;28;20023;-65
2023/12/09 00:59:13;;;;;;;11.88;6.13;;;;;;;;;;4969965;28;20398;-65
2023/12/09 01:01:39;;;;;;;16.15;7.05;;;;;;;;;;4969621;28;20053;-65
2023/12/09 01:04:05;;;;;;;11.75;6.55;;;;;;;;;;4970334;28;20023;-66
2023/12/09 01:06:31;;;;;;;13.70;6.35;;;;;;;;;;4968538;28;20055;-65
2023/12/09 01:08:56;;;;;;;13.52;6.70;;;;;;;;;;4969936;28;20491;-64
2023/12/09 01:11:21;;;;;;;14.10;6.80;;;;;;;;;;4973650;28;20111;-65
2023/12/09 01:13:46;;;;;;;12.10;6.28;;;;;;;;;;4970020;28;20030;-61
2023/12/09 01:16:11;;;;;;;11.02;6.13;;;;;;;;;;4968548;28;20102;-65
2023/12/09 01:18:37;;;;;;;10.02;5.40;;;;;;;;;;4970048;28;20086;-63
2023/12/09 01:21:02;;;;;;;13.75;5.88;;;;;;;;;;4969776;28;20023;-65
2023/12/09 01:23:27;;;;;;;12.50;6.32;;;;;;;;;;4971188;28;20030;-66
2023/12/09 01:25:53;;;;;;;26.55;9.63;;;;;;;;;;4972586;28;20021;-66
2023/12/09 01:28:18;;;;;;;27.88;12.95;;;;;;;;;;4973385;28;20019;-65
2023/12/09 01:30:43;;;;;;;50.90;18.95;;;;;;;;;;4965529;28;20058;-65
2023/12/09 01:33:08;;;;;;;44.15;18.27;;;;;;;;;;4972943;28;20026;-64
2023/12/09 01:35:33;;;;;;;39.40;17.98;;;;;;;;;;4973222;28;20030;-65
2023/12/09 01:37:59;;;;;;;43.42;17.67;;;;;;;;;;4978647;28;20053;-64
2023/12/09 01:40:24;;;;;;;30.05;14.98;;;;;;;;;;4972823;28;20038;-65
2023/12/09 01:42:49;;;;;;;36.05;14.75;;;;;;;;;;4979770;28;20034;-65
2023/12/09 01:45:14;;;;;;;35.47;14.63;;;;;;;;;;4972417;28;20054;-65
2023/12/09 01:47:41;;;;;;;31.52;14.35;;;;;;;;;;4972882;28;20030;-64
2023/12/09 01:50:07;;;;;;;22.38;12.77;;;;;;;;;;4974704;28;20526;-65
2023/12/09 01:52:32;;;;;;;26.83;13.00;;;;;;;;;;4973652;28;20101;-65
2023/12/09 01:54:59;;;;;;;29.67;12.57;;;;;;;;;;4972519;28;20037;-65
2023/12/09 01:57:25;;;;;;;25.27;11.23;;;;;;;;;;4972651;28;20019;-66
2023/12/09 01:59:50;;;;;;;23.02;11.80;;;;;;;;;;4972381;28;20459;-66
2023/12/09 02:02:15;;;;;;;22.45;11.07;;;;;;;;;;4972623;28;20029;-64
2023/12/09 02:04:40;;;;;;;22.10;9.85;;;;;;;;;;4972589;28;20023;-66
2023/12/09 02:07:06;;;;;;;15.57;9.15;;;;;;;;;;4972012;28;20030;-65
2023/12/09 02:09:32;;;;;;;22.60;10.30;;;;;;;;;;4973918;28;20058;-66
2023/12/09 02:12:02;;;;;;;19.10;8.82;;;;;;;;;;4973815;28;20372;-66
2023/12/09 02:14:36;;;;;;;20.58;8.43;;;;;;;;;;4972042;28;20110;-65
2023/12/09 02:17:20;;;;;;;16.98;8.18;;;;;;;;;;4969710;28;20022;-65
2023/12/09 02:19:46;;;;;;;19.85;7.80;;;;;;;;;;4968730;28;20030;-65
2023/12/09 02:22:11;;;;;;;14.77;6.85;;;;;;;;;;4967572;28;20018;-65
2023/12/09 02:24:37;;;;;;;15.32;7.30;;;;;;;;;;4972013;28;20445;-65
2023/12/09 02:27:10;;;;;;;12.00;6.35;;;;;;;;;;4971532;28;20430;-64
2023/12/09 02:29:39;;;;;;;16.40;6.88;;;;;;;;;;4972111;28;20041;-64
2023/12/09 02:32:04;;;;;;;;;;;;;;;;;;4970118;28;20041;-65
2023/12/09 02:34:31;;;;;;;18.13;5.90;;;;;;;;;;4971956;28;19910;-64
2023/12/09 02:36:57;;;;;;;13.90;5.93;;;;;;;;;;4970652;28;20042;-64
2023/12/09 02:39:22;;;;;;;16.48;6.50;;;;;;;;;;4977670;28;20093;-63
2023/12/09 02:41:48;;;;;;;14.70;5.72;;;;;;;;;;4971543;28;20023;-64
2023/12/09 02:44:14;;;;;;;13.55;5.93;;;;;;;;;;4977870;28;20026;-64
2023/12/09 02:46:39;;;;;;;12.52;6.78;;;;;;;;;;4970979;28;20078;-64
2023/12/09 02:49:04;;;;;;;14.23;6.22;;;;;;;;;;4971691;28;20062;-64
2023/12/09 02:51:29;;;;;;;13.13;6.28;;;;;;;;;;4973104;28;20054;-64
2023/12/09 02:53:54;;;;;;;19.73;5.90;;;;;;;;;;4971566;28;20030;-64
2023/12/09 02:56:20;;;;;;;13.30;6.80;;;;;;;;;;4970799;28;20058;-64
2023/12/09 02:58:45;;;;;;;13.43;5.80;;;;;;;;;;4972575;28;20101;-64
2023/12/09 03:01:10;;;;;;;13.35;6.13;;;;;;;;;;4970854;28;20094;-64
2023/12/09 03:03:36;;;;;;;12.82;6.35;;;;;;;;;;4971621;28;20101;-65
2023/12/09 03:06:01;;;;;;;14.27;5.43;;;;;;;;;;4970345;28;20027;-65
2023/12/09 03:08:26;;;;;;;11.30;5.43;;;;;;;;;;4970832;28;20014;-64
2023/12/09 03:10:51;;;;;;;11.32;5.97;;;;;;;;;;4974750;28;20023;-65
2023/12/09 03:13:16;;;;;;;16.45;6.35;;;;;;;;;;4971599;28;20101;-65
2023/12/09 03:15:42;;;;;;;14.07;6.05;;;;;;;;;;4970275;28;20483;-64
2023/12/09 03:18:07;;;;;;;11.57;5.53;;;;;;;;;;4970671;28;20050;-65
2023/12/09 03:20:32;;;;;;;16.23;6.55;;;;;;;;;;4970129;28;20023;-64
2023/12/09 03:22:57;;;;;;;10.85;5.57;;;;;;;;;;4971266;28;20019;-64
2023/12/09 03:25:22;;;;;;;12.75;5.95;;;;;;;;;;4971154;28;20655;-64
2023/12/09 03:27:48;;;;;;;32.03;8.48;;;;;;;;;;4970685;28;20506;-63
2023/12/09 03:30:13;;;;;;;26.23;11.02;;;;;;;;;;4966661;28;20058;-65
2023/12/09 03:32:39;;;;;;;38.97;15.57;;;;;;;;;;4971140;28;20031;-65
2023/12/09 03:35:04;;;;;;;32.97;15.27;;;;;;;;;;4970217;28;20030;-64
2023/12/09 03:37:29;;;;;;;37.85;16.45;;;;;;;;;;4974043;28;20022;-64
2023/12/09 03:39:55;;;;;;;28.73;13.90;;;;;;;;;;4972398;28;20581;-65
2023/12/09 03:42:20;;;;;;;33.47;13.98;;;;;;;;;;4972968;28;20379;-64
2023/12/09 03:44:45;;;;;;;24.33;10.35;;;;;;;;;;4973879;28;20031;-64
2023/12/09 03:47:10;;;;;;;16.85;8.15;;;;;;;;;;4968967;28;20019;-64
2023/12/09 03:49:36;;;;;;;25.77;8.10;;;;;;;;;;4970665;28;20035;-64
2023/12/09 03:52:01;;;;;;;16.08;7.60;;;;;;;;;;4970825;28;20106;-63
2023/12/09 03:54:26;;;;;;;13.23;5.88;;;;;;;;;;4970278;28;20057;-64
2023/12/09 03:56:51;;;;;;;13.13;5.90;;;;;;;;;;4969292;28;20054;-64
2023/12/09 03:59:16;;;;;;;12.15;6.32;;;;;;;;;;4970655;28;20030;-65
2023/12/09 04:01:48;;;;;;;16.00;6.05;;;;;;;;;;4970273;28;20487;-64
2023/12/09 04:04:14;;;;;;;11.95;5.40;;;;;;;;;;4966609;28;20547;-64
2023/12/09 04:06:39;;;;;;;15.35;6.07;;;;;;;;;;4970244;28;20027;-65
2023/12/09 04:09:05;;;;;;;12.07;5.00;;;;;;;;;;4970739;28;20033;-65
2023/12/09 04:11:31;;;;;;;16.25;6.18;;;;;;;;;;4973843;28;20023;-64
2023/12/09 04:13:56;;;;;;;13.43;5.85;;;;;;;;;;4971005;28;20038;-64
2023/12/09 04:16:21;;;;;;;15.52;5.82;;;;;;;;;;4969280;28;20026;-65
2023/12/09 04:18:47;;;;;;;14.50;5.45;;;;;;;;;;4970104;28;20561;-65
2023/12/09 04:21:12;;;;;;;11.07;5.55;;;;;;;;;;4969589;28;20649;-63
2023/12/09 04:23:37;;;;;;;17.52;6.13;;;;;;;;;;4970093;28;20038;-65
2023/12/09 04:26:02;;;;;;;18.10;5.85;;;;;;;;;;4968744;28;20018;-65
2023/12/09 04:28:28;;;;;;;14.98;6.60;;;;;;;;;;4970544;28;20041;-65
2023/12/09 04:30:53;;;;;;;19.13;7.60;;;;;;;;;;4965767;28;20015;-64
2023/12/09 04:33:18;;;;;;;19.45;7.38;;;;;;;;;;4969907;28;20023;-64
2023/12/09 04:35:43;;;;;;;14.38;6.22;;;;;;;;;;4969500;28;20031;-63
2023/12/09 04:38:08;;;;;;;13.00;6.82;;;;;;;;;;4969632;28;20618;-64
2023/12/09 04:40:34;;;;;;;20.77;7.85;;;;;;;;;;4969099;28;20026;-65
2023/12/09 04:42:59;;;;;;;20.10;7.30;;;;;;;;;;4976774;28;20010;-64
2023/12/09 04:45:24;;;;;;;15.70;7.80;;;;;;;;;;4969147;28;20027;-63
2023/12/09 04:47:50;;;;;;;13.77;6.57;;;;;;;;;;4969331;28;20143;-64
2023/12/09 04:50:16;;;;;;;15.20;6.40;;;;;;;;;;4970428;28;20034;-64
2023/12/09 04:52:41;;;;;;;12.02;5.88;;;;;;;;;;4970586;28;20015;-65
2023/12/09 04:55:08;;;;;;;15.63;7.18;;;;;;;;;;4969114;28;20023;-64
2023/12/09 04:57:33;;;;;;;13.35;6.72;;;;;;;;;;4968983;28;20364;-63
2023/12/09 04:59:58;;;;;;;16.60;6.97;;;;;;;;;;4972299;28;20030;-64
2023/12/09 05:02:23;;;;;;;10.90;5.65;;;;;;;;;;4976039;28;20019;-64
2023/12/09 05:04:49;;;;;;;14.43;5.63;;;;;;;;;;4973086;28;20039;-64
2023/12/09 05:07:14;;;;;;;14.20;5.82;;;;;;;;;;4972903;28;20154;-64
2023/12/09 05:09:39;;;;;;;11.93;5.25;;;;;;;;;;4974651;28;20029;-65
2023/12/09 05:12:05;;;;;;;11.20;6.13;;;;;;;;;;4972933;28;20034;-65
2023/12/09 05:14:30;;;;;;;14.93;6.50;;;;;;;;;;4972813;28;20030;-65
2023/12/09 05:16:55;;;;;;;12.73;5.47;;;;;;;;;;4972283;28;20022;-65
2023/12/09 05:19:20;;;;;;;11.93;5.55;;;;;;;;;;4972840;28;20037;-65
2023/12/09 05:21:46;;;;;;;18.30;5.50;;;;;;;;;;4972960;28;20029;-64
2023/12/09 05:24:11;;;;;;;13.45;5.90;;;;;;;;;;4972540;28;20438;-65
2023/12/09 05:26:36;;;;;;;10.23;5.30;;;;;;;;;;4971821;28;20019;-65
2023/12/09 05:29:03;;;;;;;11.32;5.65;;;;;;;;;;4972663;28;20062;-65
2023/12/09 05:31:28;;;;;;;12.35;5.45;;;;;;;;;;4972591;28;20015;-64
2023/12/09 05:33:54;;;;;;;12.93;5.80;;;;;;;;;;4972349;28;20027;-65
2023/12/09 05:36:19;;;;;;;14.13;5.32;;;;;;;;;;4973447;28;20530;-64
2023/12/09 05:38:44;;;;;;;13.55;5.50;;;;;;;;;;4981544;28;20070;-64
2023/12/09 05:41:10;;;;;;;8.68;4.68;;;;;;;;;;4972279;28;20562;-65
2023/12/09 05:43:35;;;;;;;16.67;5.70;;;;;;;;;;4979415;28;20011;-65
2023/12/09 05:46:01;;;;;;;18.65;6.13;;;;;;;;;;4971327;28;20023;-64
2023/12/09 05:48:26;;;;;;;21.10;6.30;;;;;;;;;;4972500;28;20078;-65
2023/12/09 05:50:51;;;;;;;9.73;5.15;;;;;;;;;;4972780;28;20058;-65
2023/12/09 05:53:16;;;;;;;12.80;5.30;;;;;;;;;;4972606;28;20058;-65
2023/12/09 05:55:42;;;;;;;12.45;5.63;;;;;;;;;;4971871;28;20049;-66
2023/12/09 05:58:07;;;;;;;9.45;4.55;;;;;;;;;;4972046;28;20019;-65
2023/12/09 06:00:32;;;;;;;10.63;4.90;;;;;;;;;;4972055;28;20034;-65
2023/12/09 06:02:58;;;;;;;11.30;5.13;;;;;;;;;;4973312;28;20023;-65
2023/12/09 06:05:23;;;;;;;13.52;4.50;;;;;;;;;;4971983;28;20442;-64
2023/12/09 06:07:49;;;;;;;7.95;4.22;;;;;;;;;;4972091;28;20389;-64
2023/12/09 06:10:14;;;;;;;13.55;4.72;;;;;;;;;;4972604;28;20037;-66
2023/12/09 06:12:40;;;;;;;15.88;4.38;;;;;;;;;;4973187;28;20026;-64
2023/12/09 06:15:05;;;;;;;10.40;4.45;;;;;;;;;;4971335;28;20022;-66
2023/12/09 06:17:30;;;;;;;12.65;4.80;;;;;;;;;;4971963;28;20494;-65
2023/12/09 06:19:56;;;;;;;12.00;4.80;;;;;;;;;;4970507;28;20115;-65
2023/12/09 06:22:21;;;;;;;15.50;5.65;;;;;;;;;;4971494;28;20051;-64
2023/12/09 06:24:46;;;;;;;15.23;5.95;;;;;;;;;;4971670;28;20390;-64
2023/12/09 06:27:12;;;;;;;13.75;5.78;;;;;;;;;;4970161;28;20030;-65
2023/12/09 06:29:37;;;;;;;13.07;4.57;;;;;;;;;;4972045;28;20054;-65
2023/12/09 06:32:03;;;;;;;11.27;4.70;;;;;;;;;;4970203;28;20178;-64
2023/12/09 06:34:28;;;;;;;8.68;4.30;;;;;;;;;;4971710;28;20046;-65
2023/12/09 06:36:54;;;;;;;12.32;5.47;;;;;;;;;;4971332;28;20093;-65
2023/12/09 06:39:19;;;;;;;14.00;4.60;;;;;;;;;;4977709;28;20019;-64
2023/12/09 06:41:44;;;;;;;11.77;4.88;;;;;;;;;;4971665;28;20539;-64
2023/12/09 06:44:10;;;;;;;13.07;5.07;;;;;;;;;;4978287;28;20105;-64
2023/12/09 06:46:38;;;;;;;18.27;7.07;;;;;;;;;;4971013;28;20081;-65
2023/12/09 06:49:03;;;;;;;16.48;9.27;;;;;;;;;;4972164;28;20050;-65
2023/12/09 06:51:28;;;;;;;24.00;9.77;;;;;;;;;;4972776;28;20398;-65
2023/12/09 06:53:55;;;;;;;15.02;7.57;;;;;;;;;;4971473;28;20019;-65
2023/12/09 06:56:20;;;;;;;8.88;3.85;;;;;;;;;;4971278;28;20050;-66
2023/12/09 06:58:45;;;;;;;10.35;3.78;;;;;;;;;;4971518;28;20348;-65
2023/12/09 07:01:31;;;;;;;10.05;4.20;;;;;;;;;;4971088;28;20084;-66
2023/12/09 07:03:56;;;;;;;11.90;3.67;;;;;;;;;;4969242;28;20034;-64
2023/12/09 07:06:21;;;;;;;9.30;3.83;;;;;;;;;;4971469;28;20026;-64
2023/12/09 07:08:46;;;;;;;9.57;3.70;;;;;;;;;;4971718;28;20014;-65
2023/12/09 07:11:12;;;;;;;9.98;3.85;;;;;;;;;;4972203;28;20105;-63
2023/12/09 07:13:38;;;;;;;7.40;3.47;;;;;;;;;;4972020;28;20509;-64
2023/12/09 07:16:04;;;;;;;11.88;4.90;;;;;;;;;;4969882;28;20023;-65
2023/12/09 07:18:30;;;;;;;12.13;5.15;;;;;;;;;;4966419;28;20089;-64
2023/12/09 07:20:55;;;;;;;19.75;9.65;;;;;;;;;;4970071;28;20054;-64
2023/12/09 07:23:20;;;;;;;12.25;7.68;;;;;;;;;;4970719;28;20122;-65
2023/12/09 07:25:46;;;;;;;10.23;5.45;;;;;;;;;;4969700;28;20040;-65
2023/12/09 07:28:11;;;;;;;11.80;3.92;;;;;;;;;;4969925;28;20493;-64
2023/12/09 07:30:36;;;;;;;13.18;4.05;;;;;;;;;;4968771;28;20043;-62
2023/12/09 07:33:01;;;;;;;9.45;4.03;;;;;;;;;;4969062;28;20413;-64
2023/12/09 07:35:27;;;;;;;8.35;4.35;;;;;;;;;;4964860;28;20564;-63
2023/12/09 07:37:52;;;;;;;10.05;4.00;;;;;;;;;;4972819;28;20507;-62
2023/12/09 07:40:17;;;;;;;7.15;3.53;;;;;;;;;;4968281;28;20022;-64
2023/12/09 07:42:42;;;;;;;13.32;3.95;;;;;;;;;;4971624;28;20136;-63
2023/12/09 07:45:08;;;;;;;9.57;3.67;;;;;;;;;;4967759;28;20098;-65
2023/12/09 07:47:33;;;;;;;8.40;4.03;;;;;;;;;;4969361;28;20391;-71
2023/12/09 07:49:58;;;;;;;13.85;3.90;;;;;;;;;;4969102;28;20686;-71
2023/12/09 07:52:24;;;;;;;6.97;3.55;;;;;;;;;;4970259;28;20023;-68
2023/12/09 07:54:49;;;;;;;9.05;3.63;;;;;;;;;;4969370;28;20023;-63
2023/12/09 07:57:14;;;;;;;17.00;4.40;;;;;;;;;;4968895;28;20098;-63
2023/12/09 07:59:39;;;;;;;15.43;4.50;;;;;;;;;;4969967;28;20097;-64
2023/12/09 08:02:05;;;;;;;16.48;5.07;;;;;;;;;;4970572;28;20513;-64
2023/12/09 08:04:31;;;;;;;10.65;4.60;;;;;;;;;;4970391;28;20033;-64
2023/12/09 08:06:56;;;;;;;9.88;3.88;;;;;;;;;;4969491;28;20059;-63
2023/12/09 08:09:21;;;;;;;12.38;4.20;;;;;;;;;;4970336;28;20023;-64
2023/12/09 08:11:46;;;;;;;13.70;4.53;;;;;;;;;;4973669;28;20038;-65
2023/12/09 08:14:12;;;;;;;12.82;4.38;;;;;;;;;;4968526;28;20038;-64
2023/12/09 08:16:37;;;;;;;10.63;4.53;;;;;;;;;;4969858;28;20038;-63
2023/12/09 08:19:02;;;;;;;11.15;5.15;;;;;;;;;;4970569;28;20502;-64
2023/12/09 08:21:27;;;;;;;14.15;5.32;;;;;;;;;;4970462;28;20023;-65
2023/12/09 08:23:54;;;;;;;7.40;3.42;;;;;;;;;;4970222;28;20023;-64
2023/12/09 08:26:19;;;;;;;8.55;4.13;;;;;;;;;;4969481;28;20760;-63
2023/12/09 08:28:45;;;;;;;10.32;3.63;;;;;;;;;;4970225;28;20027;-64
2023/12/09 08:31:10;;;;;;;12.38;4.38;;;;;;;;;;4967281;28;20118;-64
2023/12/09 08:33:35;;;;;;;15.77;4.50;;;;;;;;;;4972978;28;20470;-64
2023/12/09 08:36:00;;;;;;;10.27;3.80;;;;;;;;;;4965559;28;20023;-63
2023/12/09 08:38:26;;;;;;;13.57;4.22;;;;;;;;;;4979412;28;20029;-62
2023/12/09 08:40:51;;;;;;;16.50;3.63;;;;;;;;;;4974251;28;20015;-63
2023/12/09 08:43:16;;;;;;;9.38;4.10;;;;;;;;;;4978928;28;20037;-64
2023/12/09 08:45:42;;;;;;;8.45;3.65;;;;;;;;;;4972978;28;20102;-65
2023/12/09 08:48:08;;;;;;;7.38;3.85;;;;;;;;;;4973747;28;20073;-64
2023/12/09 08:50:33;;;;;;;8.40;3.80;;;;;;;;;;4973718;28;20114;-63
2023/12/09 08:52:58;;;;;;;11.60;4.25;;;;;;;;;;4973509;28;20030;-64
2023/12/09 08:55:23;;;;;;;8.35;3.88;;;;;;;;;;4972979;28;20050;-63
2023/12/09 08:57:50;;;;;;;12.20;3.65;;;;;;;;;;4972369;28;20034;-65
2023/12/09 09:00:19;;;;;;;10.02;3.88;;;;;;;;;;4964978;28;20050;-64
2023/12/09 09:02:44;;;;;;;8.63;3.58;;;;;;;;;;4973472;28;20019;-65
2023/12/09 09:05:10;;;;;;;12.10;4.60;;;;;;;;;;4972234;28;20563;-64
2023/12/09 09:07:39;;;;;;;6.90;3.67;;;;;;;;;;4972031;28;20443;-64
2023/12/09 09:10:05;;;;;;;7.45;3.28;;;;;;;;;;4977243;28;20094;-63
2023/12/09 09:12:30;;;;;;;8.45;4.22;;;;;;;;;;4973430;28;20454;-62
2023/12/09 09:14:56;;;;;;;10.38;3.92;;;;;;;;;;4973842;28;20475;-63
2023/12/09 09:17:21;;;;;;;8.27;4.25;;;;;;;;;;4972954;28;20030;-64
2023/12/09 09:19:46;;;;;;;13.38;3.78;;;;;;;;;;4973196;28;20561;-64
2023/12/09 09:22:12;;;;;;;8.75;3.97;;;;;;;;;;4973222;28;20631;-65
2023/12/09 09:24:37;;;;;;;9.63;3.97;;;;;;;;;;4972722;28;20043;-65
2023/12/09 09:27:02;;;;;;;8.48;3.15;;;;;;;;;;4971688;28;20065;-65
2023/12/09 09:29:27;;;;;;;8.25;3.50;;;;;;;;;;4973042;28;20042;-64
2023/12/09 09:31:53;;;;;;;7.03;3.58;;;;;;;;;;4971743;28;20026;-64
2023/12/09 09:34:18;;;;;;;5.30;2.72;;;;;;;;;;4972340;28;20057;-64
2023/12/09 09:36:45;;;;;;;10.45;3.60;;;;;;;;;;4966824;28;20425;-66
2023/12/09 09:39:12;;;;;;;9.40;3.58;;;;;;;;;;4972568;28;20041;-64
2023/12/09 09:41:44;;;;;;;6.78;3.45;;;;;;;;;;4969154;28;20023;-63
2023/12/09 09:44:14;;;;;;;8.50;3.50;;;;;;;;;;4975052;28;20102;-64
2023/12/09 09:46:39;;;;;;;6.95;3.42;;;;;;;;;;4968394;28;20023;-64
2023/12/09 09:49:05;;;;;;;6.88;3.42;;;;;;;;;;4969034;28;20376;-65
2023/12/09 09:51:31;;;;;;;6.78;2.63;;;;;;;;;;4969351;28;20402;-64
2023/12/09 09:53:58;;;;;;;7.55;3.17;;;;;;;;;;4975271;28;20023;-64
2023/12/09 09:56:23;;;;;;;9.40;3.25;;;;;;;;;;4969261;28;20025;-65
2023/12/09 09:58:48;;;;;;;7.82;3.05;;;;;;;;;;4969989;28;20094;-63
2023/12/09 10:01:14;;;;;;;8.52;3.40;;;;;;;;;;4979053;28;20015;-66
2023/12/09 10:03:40;;;;;;;7.15;3.42;;;;;;;;;;4972628;28;20066;-65
2023/12/09 10:06:05;;;;;;;11.98;3.67;;;;;;;;;;4970821;28;20026;-66
2023/12/09 10:08:30;;;;;;;7.30;3.58;;;;;;;;;;4971536;28;20573;-65
2023/12/09 10:10:56;;;;;;;6.90;2.65;;;;;;;;;;4965497;28;20094;-64
2023/12/09 10:13:21;;;;;;;9.30;3.08;;;;;;;;;;4968838;28;20026;-63
2023/12/09 10:15:46;;;;;;;10.13;3.20;;;;;;;;;;4963141;28;20030;-65
2023/12/09 10:18:12;;;;;;;8.18;2.90;;;;;;;;;;4973419;28;20602;-64
2023/12/09 10:20:37;;;;;;;9.00;3.08;;;;;;;;;;4970711;28;20030;-65
2023/12/09 10:23:03;;;;;;;6.07;2.70;;;;;;;;;;4970838;28;20458;-65
2023/12/09 10:25:28;;;;;;;5.95;2.58;;;;;;;;;;4971541;28;20685;-65
2023/12/09 10:27:53;;;;;;;6.53;2.80;;;;;;;;;;4971497;28;20015;-64
2023/12/09 10:30:18;;;;;;;6.13;2.72;;;;;;;;;;4970480;28;20041;-65
2023/12/09 10:32:44;;;;;;;7.30;2.67;;;;;;;;;;4966723;28;20094;-65
2023/12/09 10:35:10;;;;;;;7.38;2.67;;;;;;;;;;4970005;28;20031;-66
2023/12/09 10:37:35;;;;;;;10.77;3.60;;;;;;;;;;4966925;28;20037;-64
2023/12/09 10:40:01;;;;;;;10.27;2.88;;;;;;;;;;4971222;28;20657;-64
2023/12/09 10:42:28;;;;;;;6.80;2.80;;;;;;;;;;4974171;28;20351;-64
2023/12/09 10:44:54;;;;;;;10.80;3.22;;;;;;;;;;4973753;28;20506;-65
2023/12/09 10:47:19;;;;;;;7.38;2.92;;;;;;;;;;4966955;28;20033;-65
2023/12/09 10:49:44;;;;;;;6.35;2.92;;;;;;;;;;4967609;28;20019;-64
2023/12/09 10:52:10;;;;;;;9.13;2.88;;;;;;;;;;4970745;28;20944;-63
2023/12/09 10:54:35;;;;;;;6.03;2.78;;;;;;;;;;4969181;28;20026;-64
2023/12/09 10:57:00;;;;;;;4.75;2.47;;;;;;;;;;4965789;28;20029;-63
2023/12/09 10:59:28;;;;;;;5.32;2.85;;;;;;;;;;4967854;28;20015;-64
2023/12/09 11:01:54;;;;;;;7.15;3.08;;;;;;;;;;4961333;28;20038;-64
2023/12/09 11:04:19;;;;;;;6.80;3.05;;;;;;;;;;4969571;28;20034;-63
2023/12/09 11:06:45;;;;;;;4.40;2.53;;;;;;;;;;4968346;28;20035;-62
2023/12/09 11:09:13;;;;;;;7.45;2.67;;;;;;;;;;4964838;28;20038;-64
2023/12/09 11:11:40;;;;;;;9.82;3.08;;;;;;;;;;4971676;28;20015;-65
2023/12/09 11:14:08;;;;;;;6.15;2.58;;;;;;;;;;4972315;28;20057;-61
2023/12/09 11:16:33;;;;;;;9.15;3.17;;;;;;;;;;4967019;28;20041;-63
2023/12/09 11:18:59;;;;;;;6.07;3.00;;;;;;;;;;4970919;28;20466;-62
2023/12/09 11:21:28;;;;;;;5.00;2.63;;;;;;;;;;4972518;28;20015;-65
2023/12/09 11:23:54;;;;;;;5.82;2.60;;;;;;;;;;4967728;28;20082;-64
2023/12/09 11:26:27;;;;;;;8.80;2.80;;;;;;;;;;4969366;28;20090;-64
2023/12/09 11:29:08;;;;;;;7.35;2.83;;;;;;;;;;4970172;28;20075;-63
2023/12/09 11:31:40;;;;;;;6.65;2.85;;;;;;;;;;4970137;28;20135;-64
2023/12/09 11:34:06;;;;;;;8.45;2.88;;;;;;;;;;4968529;28;20053;-64
2023/12/09 11:36:35;;;;;;;7.95;2.95;;;;;;;;;;4965906;28;20015;-63
2023/12/09 11:39:01;;;;;;;9.27;3.28;;;;;;;;;;4976558;28;20019;-65
2023/12/09 11:41:26;;;;;;;5.90;2.72;;;;;;;;;;4969844;28;20077;-64
2023/12/09 11:43:52;;;;;;;4.60;2.58;;;;;;;;;;4977479;28;20019;-64
2023/12/09 11:46:19;;;;;;;10.82;3.60;;;;;;;;;;4968714;28;20078;-65
2023/12/09 11:48:44;;;;;;;6.53;3.05;;;;;;;;;;4964329;28;20470;-64
2023/12/09 11:51:09;;;;;;;14.98;3.40;;;;;;;;;;4964013;28;20023;-64
2023/12/09 11:53:35;;;;;;;9.02;3.55;;;;;;;;;;4969121;28;20027;-63
2023/12/09 11:56:00;;;;;;;6.75;3.10;;;;;;;;;;4969387;28;20121;-63
2023/12/09 11:58:25;;;;;;;10.32;3.40;;;;;;;;;;4969035;28;20029;-64
2023/12/09 12:00:50;;;;;;;8.20;3.08;;;;;;;;;;4968506;28;20475;-64
2023/12/09 12:03:15;;;;;;;11.23;2.90;;;;;;;;;;4967874;28;20088;-64
2023/12/09 12:05:41;;;;;;;8.38;3.28;;;;;;;;;;4969371;28;20110;-62
2023/12/09 12:08:07;;;;;;;8.15;3.78;;;;;;;;;;4965674;28;20038;-63
2023/12/09 12:10:32;;;;;;;9.10;3.60;;;;;;;;;;4974323;28;20093;-64
2023/12/09 12:12:57;;;;;;;9.80;4.30;;;;;;;;;;4968523;28;20439;-65
2023/12/09 12:15:22;;;;;;;7.68;3.15;;;;;;;;;;4964868;28;20070;-65
2023/12/09 12:17:48;;;;;;;6.50;3.13;;;;;;;;;;4969261;28;20018;-65
2023/12/09 12:20:14;;;;;;;6.68;3.17;;;;;;;;;;4966682;28;20026;-64
2023/12/09 12:22:40;;;;;;;9.77;3.72;;;;;;;;;;4965207;28;20019;-65
2023/12/09 12:25:06;;;;;;;10.10;3.47;;;;;;;;;;4969226;28;20023;-64
2023/12/09 12:27:34;;;;;;;6.68;3.60;;;;;;;;;;4969714;28;20023;-65
2023/12/09 12:29:59;;;;;;;11.65;3.83;;;;;;;;;;4975270;28;20054;-62
2023/12/09 12:32:25;;;;;;;6.43;3.42;;;;;;;;;;4968484;28;20157;-64
2023/12/09 12:34:50;;;;;;;9.43;4.20;;;;;;;;;;4968701;28;20441;-64
2023/12/09 12:37:17;;;;;;;9.30;3.85;;;;;;;;;;4968551;28;20030;-65
2023/12/09 12:39:42;;;;;;;7.97;3.50;;;;;;;;;;4969063;28;20457;-63
2023/12/09 12:42:08;;;;;;;8.70;3.35;;;;;;;;;;4966773;28;20097;-64
2023/12/09 12:44:34;;;;;;;9.35;4.38;;;;;;;;;;4975282;28;20098;-63
2023/12/09 12:46:59;;;;;;;11.10;4.57;;;;;;;;;;4965939;28;20106;-64
2023/12/09 12:49:25;;;;;;;11.77;3.63;;;;;;;;;;4967554;28;20019;-65
2023/12/09 12:51:50;;;;;;;13.35;4.50;;;;;;;;;;4969398;28;20053;-64
2023/12/09 12:54:16;;;;;;;11.80;4.75;;;;;;;;;;4968767;28;20035;-64
2023/12/09 12:56:41;;;;;;;12.13;5.15;;;;;;;;;;4969205;28;20121;-65
2023/12/09 12:59:06;;;;;;;7.88;4.53;;;;;;;;;;4969493;28;20031;-63
2023/12/09 13:01:32;;;;;;;9.65;4.35;;;;;;;;;;4973592;28;20011;-65
2023/12/09 13:03:57;;;;;;;10.32;4.07;;;;;;;;;;4968832;28;20443;-64
2023/12/09 13:06:22;;;;;;;9.02;4.32;;;;;;;;;;4963271;28;20026;-64
2023/12/09 13:08:47;;;;;;;8.82;3.72;;;;;;;;;;4964528;28;20090;-63
2023/12/09 13:11:13;;;;;;;12.05;3.78;;;;;;;;;;4969117;28;20510;-62
2023/12/09 13:13:38;;;;;;;6.90;3.75;;;;;;;;;;4969064;28;20636;-64
2023/12/09 13:16:03;;;;;;;7.05;3.42;;;;;;;;;;4967047;28;20075;-64
2023/12/09 13:18:29;;;;;;;7.88;3.45;;;;;;;;;;4970782;28;20020;-64
2023/12/09 13:20:54;;;;;;;8.45;3.63;;;;;;;;;;4972725;28;20015;-64
2023/12/09 13:23:19;;;;;;;10.02;3.60;;;;;;;;;;4973093;28;20027;-64
2023/12/09 13:25:44;;;;;;;8.40;3.30;;;;;;;;;;4970116;28;20042;-64
2023/12/09 13:28:10;;;;;;;6.47;2.60;;;;;;;;;;4967556;28;20031;-64
2023/12/09 13:30:36;;;;;;;8.20;3.30;;;;;;;;;;4975573;28;20042;-64
2023/12/09 13:33:02;;;;;;;7.15;2.92;;;;;;;;;;4970488;28;20030;-64
2023/12/09 13:35:30;;;;;;;8.18;3.22;;;;;;;;;;4969646;28;20673;-63
2023/12/09 13:37:56;;;;;;;5.78;2.65;;;;;;;;;;4970191;28;20502;-64
2023/12/09 13:40:24;;;;;;;5.38;2.72;;;;;;;;;;4977497;28;20031;-65
2023/12/09 13:42:50;;;;;;;8.15;3.47;;;;;;;;;;4976047;28;20462;-64
2023/12/09 13:45:16;;;;;;;17.30;3.92;;;;;;;;;;4972256;28;20034;-63
2023/12/09 13:47:42;;;;;;;7.80;3.33;;;;;;;;;;4970745;28;20019;-64
2023/12/09 13:50:08;;;;;;;14.32;4.97;;;;;;;;;;4972247;28;20177;-63
2023/12/09 13:52:33;;;;;;;11.82;4.60;;;;;;;;;;4971848;28;20521;-63
2023/12/09 13:54:59;;;;;;;9.25;4.57;;;;;;;;;;4976584;28;20101;-62
2023/12/09 13:57:25;;;;;;;12.90;4.20;;;;;;;;;;4970076;28;20496;-65
2023/12/09 13:59:50;;;;;;;8.55;4.00;;;;;;;;;;4978597;28;20018;-63
2023/12/09 14:02:15;;;;;;;9.00;4.03;;;;;;;;;;4970229;28;20599;-64
2023/12/09 14:04:40;;;;;;;19.30;4.43;;;;;;;;;;4971864;28;20097;-63
2023/12/09 14:07:06;;;;;;;11.05;4.65;;;;;;;;;;4970662;28;20022;-63
2023/12/09 14:09:31;;;;;;;10.30;4.45;;;;;;;;;;4973346;28;20023;-64
2023/12/09 14:11:56;;;;;;;9.68;4.55;;;;;;;;;;4971854;28;20109;-64
2023/12/09 14:14:22;;;;;;;14.55;4.97;;;;;;;;;;4965147;28;20126;-64
2023/12/09 14:16:47;;;;;;;10.63;4.90;;;;;;;;;;4963510;28;20029;-64
2023/12/09 14:19:13;;;;;;;13.45;4.60;;;;;;;;;;4970786;28;20649;-64
2023/12/09 14:21:38;;;;;;;10.82;4.50;;;;;;;;;;4973027;28;20019;-64
2023/12/09 14:24:04;;;;;;;11.05;4.82;;;;;;;;;;4970595;28;20094;-62